createdAt,value
2018-05-23T00:00:28.357Z,60.00
2018-05-23T00:02:55.713Z,60.00
2018-05-23T00:05:23.855Z,60.10
2018-05-23T00:07:54.067Z,60.10
2018-05-23T00:10:23.711Z,60.00
2018-05-23T00:12:50.663Z,60.00
2018-05-23T00:15:17.415Z,60.10
2018-05-23T00:17:43.816Z,60.20
2018-05-23T00:20:11.085Z,60.20
2018-05-23T00:22:37.633Z,61.00
2018-05-23T00:25:06.129Z,60.20
2018-05-23T00:27:35.129Z,60.30
2018-05-23T00:30:03.311Z,60.30
2018-05-23T00:32:30.429Z,60.00
2018-05-23T00:34:59.152Z,60.20
2018-05-23T00:40:13.039Z,60.30
2018-05-23T00:42:39.593Z,60.30
2018-05-23T00:45:11.631Z,60.30
2018-05-23T00:47:37.992Z,60.30
2018-05-23T00:50:04.386Z,60.30
2018-05-23T00:52:30.859Z,60.80
2018-05-23T00:54:58.671Z,60.30
2018-05-23T00:57:28.313Z,60.40
2018-05-23T00:59:57.596Z,60.40
2018-05-23T01:02:24.671Z,60.20
2018-05-23T01:04:51.025Z,60.40
2018-05-23T01:07:19.548Z,60.40
2018-05-23T01:09:46.640Z,60.60
2018-05-23T01:12:15.201Z,60.40
2018-05-23T01:14:43.416Z,60.50
2018-05-23T01:17:16.049Z,61.10
2018-05-23T01:19:46.136Z,60.40
2018-05-23T01:22:13.195Z,60.50
2018-05-23T01:24:40.268Z,60.50
2018-05-23T01:27:07.372Z,60.60
2018-05-23T01:29:34.666Z,60.70
2018-05-23T01:32:02.130Z,60.60
2018-05-23T01:34:28.778Z,60.70
2018-05-23T01:36:57.784Z,60.50
2018-05-23T01:39:24.373Z,60.70
2018-05-23T01:41:52.129Z,60.70
2018-05-23T01:44:18.544Z,60.60
2018-05-23T01:46:44.852Z,60.70
2018-05-23T01:49:13.674Z,60.70
2018-05-23T01:51:45.140Z,60.80
2018-05-23T01:54:17.772Z,60.80
2018-05-23T01:56:48.112Z,60.80
2018-05-23T01:59:18.696Z,60.80
2018-05-23T02:01:45.461Z,60.60
2018-05-23T02:04:16.623Z,60.70
2018-05-23T02:06:44.140Z,60.80
2018-05-23T02:09:12.375Z,60.70
2018-05-23T02:11:41.703Z,60.90
2018-05-23T02:14:08.299Z,60.80
2018-05-23T02:16:34.727Z,60.90
2018-05-23T02:19:04.271Z,60.90
2018-05-23T02:21:30.860Z,61.00
2018-05-23T02:23:57.228Z,60.80
2018-05-23T02:26:23.556Z,60.90
2018-05-23T02:28:53.119Z,61.00
2018-05-23T02:31:20.475Z,61.00
2018-05-23T02:33:48.559Z,61.00
2018-05-23T02:36:14.925Z,61.00
2018-05-23T02:38:45.264Z,61.00
2018-05-23T02:41:14.150Z,61.10
2018-05-23T02:46:19.494Z,61.00
2018-05-23T02:48:46.613Z,61.10
2018-05-23T02:51:12.962Z,60.90
2018-05-23T02:53:40.388Z,61.10
2018-05-23T02:56:08.159Z,61.10
2018-05-23T02:58:45.720Z,61.10
2018-05-23T03:01:13.915Z,61.00
2018-05-23T03:03:42.594Z,61.10
2018-05-23T03:08:53.094Z,61.10
2018-05-23T03:11:21.126Z,61.90
2018-05-23T03:13:49.300Z,61.30
2018-05-23T03:16:17.818Z,61.30
2018-05-23T03:18:44.304Z,61.30
2018-05-23T03:21:16.334Z,61.30
2018-05-23T03:23:46.080Z,61.30
2018-05-23T03:26:14.278Z,61.30
2018-05-23T03:28:45.255Z,61.20
2018-05-23T03:31:13.276Z,61.40
2018-05-23T03:36:13.282Z,61.20
2018-05-23T03:38:41.598Z,61.30
2018-05-23T03:41:10.412Z,61.50
2018-05-23T03:43:36.733Z,61.20
2018-05-23T03:46:03.120Z,61.40
2018-05-23T03:48:31.942Z,61.30
2018-05-23T03:50:58.676Z,61.40
2018-05-23T03:53:25.109Z,61.40
2018-05-23T03:55:51.851Z,61.50
2018-05-23T03:58:19.897Z,61.40
2018-05-23T04:00:48.855Z,61.50
2018-05-23T04:03:16.629Z,61.60
2018-05-23T04:05:43.019Z,61.30
2018-05-23T04:08:10.981Z,61.60
2018-05-23T04:10:38.091Z,61.60
2018-05-23T04:13:04.428Z,61.50
2018-05-23T04:15:32.729Z,61.70
2018-05-23T04:17:59.041Z,61.60
2018-05-23T04:20:25.538Z,61.60
2018-05-23T04:22:56.571Z,61.60
2018-05-23T04:28:06.738Z,61.60
2018-05-23T04:30:40.073Z,61.70
2018-05-23T04:33:07.215Z,61.70
2018-05-23T04:35:34.602Z,61.60
2018-05-23T04:38:01.119Z,61.60
2018-05-23T04:40:27.589Z,61.70
2018-05-23T04:42:55.047Z,61.70
2018-05-23T04:48:23.961Z,61.70
2018-05-23T04:50:51.991Z,61.80
2018-05-23T04:55:55.861Z,61.80
2018-05-23T04:58:22.432Z,61.70
2018-05-23T05:04:06.321Z,61.80
2018-05-23T05:06:38.168Z,61.80
2018-05-23T05:09:24.216Z,61.80
2018-05-23T05:12:00.338Z,61.80
2018-05-23T05:14:27.687Z,61.90
2018-05-23T05:16:57.270Z,61.80
2018-05-23T05:19:30.069Z,61.80
2018-05-23T05:22:08.191Z,61.90
2018-05-23T05:30:10.648Z,61.90
2018-05-23T05:32:37.870Z,61.90
2018-05-23T05:35:04.364Z,61.90
2018-05-23T05:37:32.716Z,61.90
2018-05-23T05:39:59.211Z,62.00
2018-05-23T05:42:40.117Z,61.90
2018-05-23T05:45:06.567Z,62.10
2018-05-23T05:47:33.426Z,62.00
2018-05-23T05:50:01.193Z,62.00
2018-05-23T05:52:33.575Z,62.00
2018-05-23T05:55:09.377Z,62.10
2018-05-23T05:57:36.811Z,62.10
2018-05-23T06:00:03.269Z,62.00
2018-05-23T06:02:32.075Z,62.20
2018-05-23T06:04:58.469Z,62.20
2018-05-23T06:09:58.705Z,62.20
2018-05-23T06:12:25.031Z,62.20
2018-05-23T06:14:51.564Z,62.20
2018-05-23T06:17:17.967Z,62.20
2018-05-23T06:19:45.747Z,62.30
2018-05-23T06:22:27.013Z,62.30
2018-05-23T06:24:54.267Z,62.20
2018-05-23T06:27:23.681Z,62.20
2018-05-23T06:32:35.761Z,62.20
2018-05-23T06:35:11.264Z,62.40
2018-05-23T06:37:38.394Z,62.50
2018-05-23T06:40:04.993Z,63.30
2018-05-23T06:42:31.517Z,62.70
2018-05-23T06:44:57.903Z,62.80
2018-05-23T06:47:25.221Z,63.00
2018-05-23T06:49:51.741Z,63.10
2018-05-23T06:52:18.948Z,63.20
2018-05-23T06:54:57.855Z,63.50
2018-05-23T07:03:37.607Z,63.70
2018-05-23T07:06:04.059Z,63.70
2018-05-23T07:08:30.595Z,64.00
2018-05-23T07:10:57.828Z,64.20
2018-05-23T07:13:24.928Z,64.30
2018-05-23T07:15:51.330Z,64.20
2018-05-23T07:18:18.579Z,64.30
2018-05-23T07:20:44.968Z,64.30
2018-05-23T07:23:12.166Z,64.30
2018-05-23T07:25:40.080Z,64.40
2018-05-23T07:28:06.582Z,64.30
2018-05-23T07:30:32.996Z,64.10
2018-05-23T07:32:59.396Z,64.40
2018-05-23T07:35:26.466Z,64.40
2018-05-23T07:37:53.549Z,64.40
2018-05-23T07:40:20.028Z,64.30
2018-05-23T07:42:46.326Z,64.40
2018-05-23T07:45:12.652Z,64.40
2018-05-23T07:47:39.006Z,64.50
2018-05-23T07:50:05.405Z,64.40
2018-05-23T07:52:31.769Z,64.40
2018-05-23T07:54:58.851Z,64.50
2018-05-23T07:57:25.881Z,64.40
2018-05-23T07:59:52.328Z,64.50
2018-05-23T08:02:18.651Z,64.50
2018-05-23T08:04:45.245Z,64.50
2018-05-23T08:07:11.621Z,64.50
2018-05-23T08:09:38.005Z,64.50
2018-05-23T08:12:04.367Z,64.30
2018-05-23T08:14:30.784Z,64.50
2018-05-23T08:16:57.227Z,64.60
2018-05-23T08:19:24.467Z,64.60
2018-05-23T08:21:50.775Z,64.50
2018-05-23T08:24:17.928Z,64.60
2018-05-23T08:26:44.328Z,64.50
2018-05-23T08:29:11.537Z,64.60
2018-05-23T08:31:37.870Z,64.60
2018-05-23T08:34:04.367Z,64.60
2018-05-23T08:36:31.563Z,64.80
2018-05-23T08:38:57.897Z,64.60
2018-05-23T08:41:24.941Z,64.80
2018-05-23T08:43:51.282Z,64.70
2018-05-23T08:46:17.603Z,64.70
2018-05-23T08:48:44.461Z,64.70
2018-05-23T08:51:10.772Z,64.80
2018-05-23T08:53:38.127Z,64.80
2018-05-23T08:56:04.570Z,64.70
2018-05-23T08:58:31.542Z,64.70
2018-05-23T09:00:57.898Z,64.80
2018-05-23T09:03:24.508Z,64.80
2018-05-23T09:05:50.868Z,64.80
2018-05-23T09:08:17.269Z,64.80
2018-05-23T09:10:44.158Z,65.60
2018-05-23T09:13:11.606Z,64.80
2018-05-23T09:15:37.941Z,64.70
2018-05-23T09:20:41.715Z,64.80
2018-05-23T09:23:08.074Z,64.70
2018-05-23T09:28:21.061Z,64.70
2018-05-23T09:30:51.275Z,64.70
2018-05-23T09:33:18.445Z,64.60
2018-05-23T09:38:24.159Z,64.80
2018-05-23T09:40:51.737Z,64.80
2018-05-23T09:43:19.781Z,64.80
2018-05-23T09:45:46.149Z,64.70
2018-05-23T09:48:13.549Z,64.80
2018-05-23T09:50:39.985Z,64.90
2018-05-23T09:55:51.910Z,65.00
2018-05-23T09:58:20.128Z,65.10
2018-05-23T10:00:47.899Z,65.10
2018-05-23T10:03:14.272Z,65.10
2018-05-23T10:05:40.596Z,65.10
2018-05-23T10:08:07.400Z,65.90
2018-05-23T10:10:33.747Z,65.20
2018-05-23T10:13:07.199Z,65.20
2018-05-23T10:15:35.197Z,65.20
2018-05-23T10:18:01.718Z,65.30
2018-05-23T10:20:29.780Z,65.20
2018-05-23T10:22:58.828Z,65.20
2018-05-23T10:25:27.380Z,65.30
2018-05-23T10:27:54.825Z,65.30
2018-05-23T10:30:21.156Z,65.20
2018-05-23T10:32:47.874Z,65.40
2018-05-23T10:35:14.368Z,65.30
2018-05-23T10:37:41.705Z,65.30
2018-05-23T10:40:08.510Z,65.30
2018-05-23T10:42:35.697Z,65.50
2018-05-23T10:45:02.123Z,65.30
2018-05-23T10:47:28.504Z,65.40
2018-05-23T10:49:55.776Z,65.40
2018-05-23T10:52:24.673Z,65.40
2018-05-23T10:54:51.243Z,65.30
2018-05-23T10:57:18.328Z,65.30
2018-05-23T10:59:44.808Z,65.30
2018-05-23T11:02:11.421Z,65.40
2018-05-23T11:04:37.865Z,65.40
2018-05-23T11:07:04.883Z,65.30
2018-05-23T11:09:32.371Z,65.30
2018-05-23T11:11:58.801Z,65.30
2018-05-23T11:14:27.982Z,65.30
2018-05-23T11:16:55.422Z,65.40
2018-05-23T11:19:22.664Z,65.40
2018-05-23T11:21:51.100Z,65.30
2018-05-23T11:24:21.086Z,65.40
2018-05-23T11:26:50.660Z,65.40
2018-05-23T11:29:17.819Z,65.40
2018-05-23T11:31:48.779Z,65.40
2018-05-23T11:34:19.421Z,65.40
2018-05-23T11:36:47.448Z,65.50
2018-05-23T11:39:16.056Z,65.40
2018-05-23T11:41:43.001Z,65.30
2018-05-23T11:44:11.816Z,65.30
2018-05-23T11:46:40.079Z,65.30
2018-05-23T11:49:09.001Z,65.40
2018-05-23T11:51:38.635Z,65.50
2018-05-23T11:54:05.214Z,65.50
2018-05-23T11:56:31.652Z,65.30
2018-05-23T11:58:59.661Z,65.60
2018-05-23T12:01:26.150Z,65.50
2018-05-23T12:03:52.594Z,65.50
2018-05-23T12:06:19.019Z,65.50
2018-05-23T12:08:45.364Z,65.60
2018-05-23T12:11:11.732Z,65.60
2018-05-23T12:13:38.086Z,65.50
2018-05-23T12:16:05.269Z,65.70
2018-05-23T12:18:32.212Z,65.60
2018-05-23T12:20:58.715Z,65.60
2018-05-23T12:23:25.029Z,65.70
2018-05-23T12:25:52.159Z,65.70
2018-05-23T12:28:18.671Z,65.60
2018-05-23T12:30:45.934Z,65.70
2018-05-23T12:33:12.566Z,65.60
2018-05-23T12:35:38.992Z,65.70
2018-05-23T12:38:06.167Z,65.70
2018-05-23T12:40:32.587Z,65.60
2018-05-23T12:42:59.021Z,65.60
2018-05-23T12:45:25.410Z,65.60
2018-05-23T12:47:52.716Z,65.70
2018-05-23T12:50:19.105Z,65.60
2018-05-23T12:52:45.508Z,65.60
2018-05-23T12:55:11.918Z,65.60
2018-05-23T12:57:39.209Z,65.60
2018-05-23T13:00:06.346Z,65.50
2018-05-23T13:02:32.857Z,65.50
2018-05-23T13:04:59.251Z,66.40
2018-05-23T13:07:25.936Z,65.50
2018-05-23T13:09:53.035Z,66.00
2018-05-23T13:12:19.641Z,65.40
2018-05-23T13:14:46.054Z,65.50
2018-05-23T13:17:12.498Z,65.40
2018-05-23T13:19:38.830Z,65.30
2018-05-23T13:22:05.262Z,65.30
2018-05-23T13:24:31.766Z,65.30
2018-05-23T13:26:58.265Z,65.20
2018-05-23T13:29:24.648Z,66.10
2018-05-23T13:31:51.053Z,65.40
2018-05-23T13:34:18.363Z,65.30
2018-05-23T13:36:45.621Z,65.20
2018-05-23T13:39:12.769Z,65.20
2018-05-23T13:41:39.193Z,65.10
2018-05-23T13:44:05.562Z,65.10
2018-05-23T13:46:32.063Z,65.10
2018-05-23T13:48:58.588Z,65.00
2018-05-23T13:51:25.479Z,65.00
2018-05-23T13:53:51.886Z,64.90
2018-05-23T13:56:18.420Z,64.90
2018-05-23T13:58:44.825Z,64.90
2018-05-23T14:01:11.301Z,64.80
2018-05-23T14:03:37.698Z,64.70
2018-05-23T14:06:05.618Z,64.70
2018-05-23T14:08:33.546Z,64.70
2018-05-23T14:11:00.053Z,64.70
2018-05-23T14:13:27.289Z,64.60
2018-05-23T14:15:53.645Z,64.60
2018-05-23T14:18:21.527Z,64.50
2018-05-23T14:20:49.093Z,64.60
2018-05-23T14:23:23.337Z,64.50
2018-05-23T14:26:00.154Z,64.50
2018-05-23T14:28:37.248Z,64.40
2018-05-23T14:31:06.047Z,64.40
2018-05-23T14:33:38.087Z,64.30
2018-05-23T14:36:10.239Z,64.30
2018-05-23T14:38:46.878Z,64.30
2018-05-23T14:41:19.158Z,64.20
2018-05-23T14:43:47.518Z,64.20
2018-05-23T14:46:13.874Z,64.20
2018-05-23T14:48:41.273Z,64.10
2018-05-23T14:51:07.972Z,64.10
2018-05-23T14:53:34.376Z,64.10
2018-05-23T14:56:02.174Z,64.10
2018-05-23T14:58:30.999Z,64.00
2018-05-23T15:00:57.528Z,64.00
2018-05-23T15:03:25.212Z,64.00
2018-05-23T15:05:51.661Z,64.00
2018-05-23T15:08:18.158Z,63.90
2018-05-23T15:10:44.995Z,63.90
2018-05-23T15:13:11.349Z,63.90
2018-05-23T15:15:37.834Z,63.90
2018-05-23T15:18:05.023Z,63.80
2018-05-23T15:20:31.519Z,63.80
2018-05-23T15:22:58.621Z,63.80
2018-05-23T15:28:03.340Z,63.80
2018-05-23T15:30:29.745Z,63.80
2018-05-23T15:32:56.071Z,63.70
2018-05-23T15:35:23.183Z,63.60
2018-05-23T15:37:55.228Z,63.70
2018-05-23T15:40:21.676Z,63.70
2018-05-23T15:42:48.007Z,63.50
2018-05-23T15:45:14.825Z,63.60
2018-05-23T15:47:41.204Z,63.50
2018-05-23T15:50:07.513Z,63.40
2018-05-23T15:52:33.826Z,63.30
2018-05-23T15:55:00.297Z,63.40
2018-05-23T15:57:27.357Z,63.50
2018-05-23T15:59:53.724Z,63.40
2018-05-23T16:02:20.061Z,63.30
2018-05-23T16:04:46.375Z,63.30
2018-05-23T16:07:13.469Z,63.30
2018-05-23T16:09:39.772Z,63.20
2018-05-23T16:12:06.824Z,63.20
2018-05-23T16:14:33.174Z,63.20
2018-05-23T16:16:59.514Z,64.00
2018-05-23T16:19:25.812Z,63.10
2018-05-23T16:21:52.090Z,63.00
2018-05-23T16:24:18.416Z,63.20
2018-05-23T16:26:44.765Z,63.20
2018-05-23T16:29:11.067Z,63.10
2018-05-23T16:31:37.392Z,63.10
2018-05-23T16:34:04.472Z,63.10
2018-05-23T16:36:30.962Z,62.90
2018-05-23T16:38:57.793Z,63.00
2018-05-23T16:41:24.188Z,63.00
2018-05-23T16:43:50.645Z,63.00
2018-05-23T16:46:17.548Z,63.00
2018-05-23T16:48:43.869Z,62.90
2018-05-23T16:51:10.154Z,62.20
2018-05-23T16:53:36.568Z,62.80
2018-05-23T16:56:03.036Z,62.90
2018-05-23T16:58:29.508Z,62.80
2018-05-23T17:00:55.884Z,62.90
2018-05-23T17:06:06.880Z,62.80
2018-05-23T17:08:34.581Z,62.70
2018-05-23T17:11:01.052Z,62.70
2018-05-23T17:13:28.807Z,62.80
2018-05-23T17:15:55.222Z,62.80
2018-05-23T17:18:22.625Z,62.80
2018-05-23T17:20:49.048Z,62.80
2018-05-23T17:23:15.442Z,62.80
2018-05-23T17:25:42.541Z,62.80
2018-05-23T17:28:08.883Z,62.70
2018-05-23T17:30:35.263Z,62.70
2018-05-23T17:33:01.783Z,62.80
2018-05-23T17:35:34.989Z,62.80
2018-05-23T17:38:09.607Z,62.80
2018-05-23T17:40:35.971Z,62.70
2018-05-23T17:43:03.713Z,62.70
2018-05-23T17:45:31.713Z,62.80
2018-05-23T17:48:00.409Z,62.70
2018-05-23T17:50:27.374Z,62.60
2018-05-23T17:52:53.711Z,62.70
2018-05-23T17:55:20.200Z,62.70
2018-05-23T17:57:47.261Z,62.70
2018-05-23T18:00:14.324Z,62.70
2018-05-23T18:02:40.741Z,63.40
2018-05-23T18:05:11.152Z,62.60
2018-05-23T18:07:37.536Z,62.70
2018-05-23T18:10:03.889Z,62.60
2018-05-23T18:12:30.167Z,62.70
2018-05-23T18:14:56.514Z,62.60
2018-05-23T18:17:22.913Z,62.60
2018-05-23T18:19:50.890Z,62.50
2018-05-23T18:22:17.497Z,62.50
2018-05-23T18:24:48.265Z,62.60
2018-05-23T18:27:16.064Z,62.50
2018-05-23T18:29:43.410Z,62.50
2018-05-23T18:32:09.792Z,62.50
2018-05-23T18:34:36.755Z,62.40
2018-05-23T18:37:03.103Z,62.50
2018-05-23T18:39:32.487Z,62.40
2018-05-23T18:41:59.067Z,62.50
2018-05-23T18:44:28.138Z,62.40
2018-05-23T18:46:56.139Z,62.40
2018-05-23T18:49:23.280Z,62.50
2018-05-23T18:51:49.688Z,62.30
2018-05-23T18:54:17.147Z,62.40
2018-05-23T18:59:15.910Z,62.40
2018-05-23T19:01:44.613Z,62.20
2018-05-23T19:04:12.888Z,61.90
2018-05-23T19:06:40.887Z,62.90
2018-05-23T19:09:12.358Z,62.50
2018-05-23T19:11:39.475Z,62.50
2018-05-23T19:14:05.954Z,62.30
2018-05-23T19:16:35.235Z,62.50
2018-05-23T19:19:01.850Z,62.40
2018-05-23T19:21:28.201Z,62.30
2018-05-23T19:23:54.539Z,62.50
2018-05-23T19:26:20.885Z,62.40
2018-05-23T19:28:47.247Z,62.50
2018-05-23T19:31:13.913Z,62.50
2018-05-23T19:33:40.357Z,62.50
2018-05-23T19:36:07.729Z,62.40
2018-05-23T19:38:34.191Z,62.50
2018-05-23T19:41:02.013Z,62.50
2018-05-23T19:43:29.024Z,62.50
2018-05-23T19:45:55.360Z,62.50
2018-05-23T19:48:24.962Z,62.40
2018-05-23T19:50:52.225Z,62.50
2018-05-23T19:53:22.210Z,62.50
2018-05-23T19:55:49.453Z,62.60
2018-05-23T19:58:19.649Z,62.50
2018-05-23T20:00:48.148Z,62.40
2018-05-23T20:03:15.486Z,62.50
2018-05-23T20:05:41.853Z,62.50
2018-05-23T20:08:08.569Z,62.50
2018-05-23T20:10:36.961Z,62.50
2018-05-23T20:13:07.217Z,62.50
2018-05-23T20:15:34.831Z,62.50
2018-05-23T20:18:02.592Z,62.30
2018-05-23T20:20:33.204Z,62.50
2018-05-23T20:23:00.692Z,62.40
2018-05-23T20:28:02.832Z,62.50
2018-05-23T20:30:38.928Z,62.60
2018-05-23T20:33:06.300Z,62.50
2018-05-23T20:35:32.885Z,62.50
2018-05-23T20:38:01.606Z,62.50
2018-05-23T20:40:30.838Z,62.60
2018-05-23T20:43:02.121Z,62.60
2018-05-23T20:45:31.092Z,62.60
2018-05-23T20:48:01.934Z,62.60
2018-05-23T20:50:29.862Z,62.70
2018-05-23T20:52:58.634Z,62.60
2018-05-23T20:55:28.237Z,62.70
2018-05-23T20:57:56.559Z,62.60
2018-05-23T21:00:22.961Z,62.60
2018-05-23T21:02:50.151Z,62.70
2018-05-23T21:05:18.427Z,63.40
2018-05-23T21:07:44.878Z,62.70
2018-05-23T21:10:11.303Z,62.70
2018-05-23T21:12:39.280Z,62.70
2018-05-23T21:17:42.080Z,62.80
2018-05-23T21:20:10.210Z,62.70
2018-05-23T21:22:36.701Z,62.70
2018-05-23T21:25:04.759Z,62.70
2018-05-23T21:30:21.173Z,62.70
2018-05-23T21:32:47.543Z,62.70
2018-05-23T21:35:13.895Z,62.80
2018-05-23T21:37:40.326Z,62.80
2018-05-23T21:40:06.664Z,62.80
2018-05-23T21:42:35.554Z,62.90
2018-05-23T21:45:05.126Z,62.90
2018-05-23T21:47:31.966Z,62.90
2018-05-23T21:50:00.547Z,62.90
2018-05-23T21:52:27.077Z,62.90
2018-05-23T21:54:53.530Z,62.90
2018-05-23T21:57:21.218Z,63.00
2018-05-23T21:59:47.571Z,62.90
2018-05-23T22:02:13.888Z,62.90
2018-05-23T22:04:40.520Z,63.00
2018-05-23T22:07:07.942Z,62.90
2018-05-23T22:09:35.014Z,62.90
2018-05-23T22:12:01.340Z,62.90
2018-05-23T22:14:27.705Z,63.00
2018-05-23T22:16:54.774Z,63.00
2018-05-23T22:19:21.210Z,63.00
2018-05-23T22:21:47.631Z,63.00
2018-05-23T22:24:14.210Z,63.00
2018-05-23T22:26:43.150Z,63.00
2018-05-23T22:29:14.377Z,63.10
2018-05-23T22:31:43.149Z,63.10
2018-05-23T22:34:10.836Z,63.10
2018-05-23T22:36:38.191Z,63.10
2018-05-23T22:39:05.940Z,63.20
2018-05-23T22:41:34.190Z,63.10
2018-05-23T22:44:04.427Z,63.10
2018-05-23T22:46:32.039Z,63.10
2018-05-23T22:48:59.977Z,63.20
2018-05-23T22:51:27.133Z,63.20
2018-05-23T22:53:55.633Z,63.10
2018-05-23T22:56:22.117Z,63.20
2018-05-23T22:58:48.829Z,63.20
2018-05-23T23:01:15.539Z,63.20
2018-05-23T23:03:45.929Z,63.30
2018-05-23T23:06:13.354Z,63.10
2018-05-23T23:08:40.563Z,63.40
2018-05-23T23:11:07.699Z,63.30
2018-05-23T23:13:37.251Z,63.40
2018-05-23T23:16:03.955Z,64.10
2018-05-23T23:18:30.484Z,63.30
2018-05-23T23:21:02.581Z,63.40
2018-05-23T23:23:30.793Z,63.50
2018-05-23T23:25:58.245Z,63.40
2018-05-23T23:28:24.619Z,63.40
2018-05-23T23:30:51.725Z,63.50
2018-05-23T23:33:18.056Z,63.40
2018-05-23T23:35:44.521Z,63.50
2018-05-23T23:38:10.923Z,63.50
2018-05-23T23:40:42.010Z,63.60
2018-05-23T23:43:14.420Z,63.50
2018-05-23T23:45:41.662Z,63.50
2018-05-23T23:48:10.818Z,63.40
2018-05-23T23:50:39.264Z,63.60
2018-05-23T23:55:40.902Z,63.50
2018-05-23T23:58:08.645Z,64.40
